Time;durP1;ratioP1;P1;durP2;ratioP2;P2;SDS_P1;SDS_P2;PMS_P1;PMS_P2;Temp;Humidity;BMP_temperature;BMP_pressure;BME280_temperature;BME280_humidity;BME280_pressure;Samples;Min_cycle;Max_cycle;Signal;HPM_P1;HPM_P2
2021/11/20 00:02:18;;;;;;;6.32;2.20;;;;;;;;;;5111994;28;20039;-63
2021/11/20 00:04:46;;;;;;;7.70;2.97;;;;;;;;;;5109886;28;20024;-75
2021/11/20 00:07:12;;;;;;;8.30;2.17;;;;;;;;;;5107137;28;20034;-65
2021/11/20 00:09:38;;;;;;;5.75;2.67;;;;;;;;;;5093825;28;20077;-63
2021/11/20 00:12:11;;;;;;;8.85;2.50;;;;;;;;;;5111970;28;20032;-69
2021/11/20 00:14:37;;;;;;;4.68;2.10;;;;;;;;;;5092854;28;20024;-74
2021/11/20 00:17:04;;;;;;;5.82;2.65;;;;;;;;;;5106554;28;20414;-67
2021/11/20 00:19:31;;;;;;;7.22;2.78;;;;;;;;;;5095708;28;20491;-72
2021/11/20 00:22:03;;;;;;;4.65;2.40;;;;;;;;;;5091582;28;20085;-74
2021/11/20 00:24:32;;;;;;;5.17;2.30;;;;;;;;;;5091756;28;20051;-69
2021/11/20 00:27:01;;;;;;;6.65;2.58;;;;;;;;;;5076742;28;20019;-73
2021/11/20 00:29:38;;;;;;;4.03;2.10;;;;;;;;;;5104681;28;20451;-68
2021/11/20 00:32:06;;;;;;;7.82;2.38;;;;;;;;;;5094403;28;20021;-69
2021/11/20 00:34:32;;;;;;;4.97;2.20;;;;;;;;;;5095204;28;20020;-74
2021/11/20 00:36:59;;;;;;;4.70;2.13;;;;;;;;;;5073312;28;20059;-73
2021/11/20 00:39:27;;;;;;;5.07;2.42;;;;;;;;;;5110832;28;20031;-73
2021/11/20 00:41:54;;;;;;;4.45;2.10;;;;;;;;;;5111918;28;20602;-69
2021/11/20 00:44:20;;;;;;;6.30;2.25;;;;;;;;;;5092041;28;20387;-75
2021/11/20 00:46:46;;;;;;;5.18;2.38;;;;;;;;;;5091844;28;20028;-70
2021/11/20 00:49:13;;;;;;;5.25;2.05;;;;;;;;;;5103920;28;20028;-69
2021/11/20 00:51:39;;;;;;;7.05;2.28;;;;;;;;;;5086142;28;20065;-69
2021/11/20 00:54:05;;;;;;;3.72;2.03;;;;;;;;;;5080747;28;20047;-67
2021/11/20 00:56:32;;;;;;;5.60;2.50;;;;;;;;;;5091591;28;20020;-68
2021/11/20 00:58:58;;;;;;;7.03;2.20;;;;;;;;;;5098112;28;20028;-64
2021/11/20 01:01:26;;;;;;;6.85;2.13;;;;;;;;;;5103578;28;20378;-75
2021/11/20 01:03:53;;;;;;;4.97;2.60;;;;;;;;;;5109648;28;20028;-71
2021/11/20 01:06:20;;;;;;;5.05;2.08;;;;;;;;;;5091671;28;20077;-66
2021/11/20 01:08:46;;;;;;;6.45;2.33;;;;;;;;;;5091059;28;20016;-71
2021/11/20 01:11:19;;;;;;;3.90;2.03;;;;;;;;;;5097044;28;20028;-63
2021/11/20 01:13:46;;;;;;;7.60;2.13;;;;;;;;;;5099650;28;20020;-74
2021/11/20 01:16:14;;;;;;;7.75;2.13;;;;;;;;;;5101328;28;20020;-64
2021/11/20 01:18:40;;;;;;;5.07;2.35;;;;;;;;;;5094922;28;20438;-73
2021/11/20 01:21:07;;;;;;;5.63;2.08;;;;;;;;;;5102499;28;20460;-71
2021/11/20 01:23:34;;;;;;;5.47;2.10;;;;;;;;;;5093246;28;20119;-64
2021/11/20 01:26:01;;;;;;;7.88;2.38;;;;;;;;;;5100323;28;20023;-69
2021/11/20 01:28:29;;;;;;;5.25;2.08;;;;;;;;;;5098614;28;20027;-75
2021/11/20 01:30:57;;;;;;;6.65;2.05;;;;;;;;;;5104924;28;20411;-74
2021/11/20 01:33:23;;;;;;;8.85;2.28;;;;;;;;;;5096433;28;20474;-74
2021/11/20 01:35:49;;;;;;;5.70;2.05;;;;;;;;;;5098432;28;20024;-73
2021/11/20 01:38:16;;;;;;;5.63;2.08;;;;;;;;;;5095350;28;20027;-71
2021/11/20 01:40:43;;;;;;;6.45;1.85;;;;;;;;;;5098303;28;20084;-72
2021/11/20 01:43:10;;;;;;;4.45;1.90;;;;;;;;;;5099359;28;20494;-73
2021/11/20 01:45:38;;;;;;;4.82;2.15;;;;;;;;;;5104133;28;20028;-73
2021/11/20 01:48:07;;;;;;;6.72;2.05;;;;;;;;;;5093307;28;20020;-70
2021/11/20 01:50:36;;;;;;;5.18;1.88;;;;;;;;;;5097409;28;20582;-69
2021/11/20 01:53:05;;;;;;;6.97;1.80;;;;;;;;;;5101075;28;21421;-74
2021/11/20 01:55:47;;;;;;;5.13;2.30;;;;;;;;;;5075459;28;20470;-66
2021/11/20 01:58:16;;;;;;;4.88;2.25;;;;;;;;;;5097245;28;20024;-74
2021/11/20 02:00:45;;;;;;;5.68;2.42;;;;;;;;;;5097464;28;20050;-70
2021/11/20 02:03:16;;;;;;;6.88;2.00;;;;;;;;;;5100980;28;20077;-70
2021/11/20 02:05:45;;;;;;;3.97;2.22;;;;;;;;;;5076985;28;20115;-72
2021/11/20 02:08:13;;;;;;;4.47;2.03;;;;;;;;;;5094989;28;20039;-64
2021/11/20 02:10:46;;;;;;;4.15;2.10;;;;;;;;;;5103241;28;20047;-65
2021/11/20 02:13:14;;;;;;;7.38;2.00;;;;;;;;;;5092646;28;20068;-74
2021/11/20 02:15:59;;;;;;;5.80;2.30;;;;;;;;;;5077523;28;20032;-70
2021/11/20 02:18:26;;;;;;;4.70;2.25;;;;;;;;;;5100889;28;20032;-69
2021/11/20 02:20:52;;;;;;;4.38;2.30;;;;;;;;;;5097833;28;20016;-71
2021/11/20 02:23:18;;;;;;;6.47;2.10;;;;;;;;;;5095531;28;20501;-71
2021/11/20 02:25:44;;;;;;;7.10;2.20;;;;;;;;;;5100830;28;20036;-65
2021/11/20 02:28:11;;;;;;;5.50;2.17;;;;;;;;;;5100530;28;20024;-72
2021/11/20 02:30:42;;;;;;;5.00;2.15;;;;;;;;;;5100083;28;20110;-64
2021/11/20 02:33:09;;;;;;;8.80;2.20;;;;;;;;;;5101026;28;20073;-74
2021/11/20 02:35:38;;;;;;;4.35;1.88;;;;;;;;;;5096788;28;20506;-73
2021/11/20 02:38:05;;;;;;;6.18;2.08;;;;;;;;;;5092568;28;20099;-71
2021/11/20 02:40:31;;;;;;;7.03;2.13;;;;;;;;;;5098957;28;20558;-71
2021/11/20 02:42:59;;;;;;;6.40;1.90;;;;;;;;;;5101957;28;20048;-70
2021/11/20 02:45:25;;;;;;;5.38;2.20;;;;;;;;;;5097999;28;20027;-66
2021/11/20 02:47:51;;;;;;;7.75;1.90;;;;;;;;;;5076045;28;20020;-65
2021/11/20 02:50:25;;;;;;;4.88;2.42;;;;;;;;;;5099483;28;20020;-75
2021/11/20 02:52:51;;;;;;;5.13;2.35;;;;;;;;;;5097184;28;20745;-75
2021/11/20 02:55:17;;;;;;;5.80;2.10;;;;;;;;;;5094649;28;20046;-71
2021/11/20 02:57:44;;;;;;;4.07;1.88;;;;;;;;;;5100479;28;20455;-73
2021/11/20 03:00:13;;;;;;;5.45;2.30;;;;;;;;;;5097079;28;20031;-75
2021/11/20 03:02:39;;;;;;;5.72;2.40;;;;;;;;;;5101829;28;20043;-71
2021/11/20 03:05:06;;;;;;;4.93;2.05;;;;;;;;;;5101093;28;20490;-73
2021/11/20 03:07:32;;;;;;;5.53;2.20;;;;;;;;;;5100512;28;20024;-76
2021/11/20 03:09:58;;;;;;;6.90;1.98;;;;;;;;;;5081114;28;20107;-75
2021/11/20 03:12:24;;;;;;;4.35;2.20;;;;;;;;;;5083970;28;20572;-70
2021/11/20 03:14:50;;;;;;;3.47;1.75;;;;;;;;;;5095283;28;20031;-71
2021/11/20 03:17:16;;;;;;;4.80;1.70;;;;;;;;;;5096405;28;20020;-72
2021/11/20 03:19:44;;;;;;;5.38;2.00;;;;;;;;;;5095613;28;20027;-66
2021/11/20 03:22:34;;;;;;;9.38;2.20;;;;;;;;;;5079026;28;20027;-72
2021/11/20 03:25:00;;;;;;;4.47;1.73;;;;;;;;;;5087153;28;20036;-63
2021/11/20 03:27:26;;;;;;;5.18;1.92;;;;;;;;;;5098688;28;20141;-68
2021/11/20 03:29:52;;;;;;;5.03;2.00;;;;;;;;;;5099170;28;20043;-72
2021/11/20 03:32:18;;;;;;;5.93;1.90;;;;;;;;;;5094093;28;20020;-72
2021/11/20 03:34:45;;;;;;;6.57;2.08;;;;;;;;;;5094084;28;20024;-73
2021/11/20 03:37:12;;;;;;;6.53;2.17;;;;;;;;;;5100286;28;20035;-73
2021/11/20 03:39:38;;;;;;;8.57;2.42;;;;;;;;;;5099633;28;20065;-68
2021/11/20 03:42:04;;;;;;;4.10;1.90;;;;;;;;;;5094348;28;20049;-75
2021/11/20 03:44:31;;;;;;;3.88;2.05;;;;;;;;;;5072175;28;20020;-66
2021/11/20 03:46:57;;;;;;;3.55;1.80;;;;;;;;;;5096087;28;20028;-74
2021/11/20 03:49:23;;;;;;;6.57;2.00;;;;;;;;;;5093029;28;20599;-74
2021/11/20 03:51:50;;;;;;;5.13;1.42;;;;;;;;;;5097632;28;20031;-69
2021/11/20 03:54:16;;;;;;;4.75;1.80;;;;;;;;;;5092660;28;20478;-74
2021/11/20 03:56:42;;;;;;;5.53;1.98;;;;;;;;;;5094561;28;20032;-74
2021/11/20 03:59:08;;;;;;;3.90;1.80;;;;;;;;;;5098153;28;20542;-75
2021/11/20 04:01:34;;;;;;;3.83;1.73;;;;;;;;;;5078354;28;20035;-73
2021/11/20 04:04:01;;;;;;;3.70;1.70;;;;;;;;;;5099359;28;20035;-74
2021/11/20 04:06:27;;;;;;;4.45;1.83;;;;;;;;;;5097880;28;20020;-73
2021/11/20 04:08:53;;;;;;;3.38;1.80;;;;;;;;;;5094670;28;20028;-72
2021/11/20 04:11:21;;;;;;;3.78;1.60;;;;;;;;;;5086451;28;20047;-80
2021/11/20 04:13:48;;;;;;;8.02;2.10;;;;;;;;;;5098816;28;20046;-69
2021/11/20 04:16:14;;;;;;;4.95;1.73;;;;;;;;;;5096719;28;20068;-69
2021/11/20 04:18:44;;;;;;;5.13;1.63;;;;;;;;;;5094743;28;20029;-75
2021/11/20 04:21:11;;;;;;;5.93;1.70;;;;;;;;;;5099947;28;20032;-74
2021/11/20 04:23:37;;;;;;;5.38;2.00;;;;;;;;;;5094174;28;20085;-75
2021/11/20 04:26:05;;;;;;;3.67;1.50;;;;;;;;;;5096298;28;20372;-69
2021/11/20 04:28:31;;;;;;;3.88;1.75;;;;;;;;;;5093071;28;20099;-75
2021/11/20 04:30:57;;;;;;;6.72;1.70;;;;;;;;;;5094331;28;20085;-75
2021/11/20 04:33:23;;;;;;;3.85;1.90;;;;;;;;;;5091790;28;20032;-72
2021/11/20 04:35:49;;;;;;;3.40;1.75;;;;;;;;;;5075630;28;20028;-74
2021/11/20 04:38:15;;;;;;;3.47;1.60;;;;;;;;;;5092984;28;20399;-70
2021/11/20 04:40:42;;;;;;;4.53;1.63;;;;;;;;;;5093221;28;20075;-71
2021/11/20 04:43:08;;;;;;;4.47;1.70;;;;;;;;;;5089308;28;20115;-74
2021/11/20 04:45:35;;;;;;;5.40;1.60;;;;;;;;;;5094279;28;20019;-74
2021/11/20 04:48:02;;;;;;;3.67;1.80;;;;;;;;;;5096464;28;20405;-74
2021/11/20 04:50:29;;;;;;;5.00;1.65;;;;;;;;;;5095987;28;20027;-75
2021/11/20 04:52:55;;;;;;;6.07;1.73;;;;;;;;;;5081136;28;20024;-75
2021/11/20 04:55:21;;;;;;;3.80;1.60;;;;;;;;;;5096940;27;20027;-72
2021/11/20 04:57:47;;;;;;;4.05;1.80;;;;;;;;;;5080717;28;20451;-68
2021/11/20 05:00:14;;;;;;;4.13;1.73;;;;;;;;;;5082234;28;20069;-74
2021/11/20 05:02:40;;;;;;;5.03;1.58;;;;;;;;;;5099340;28;20089;-67
2021/11/20 05:05:07;;;;;;;3.88;1.67;;;;;;;;;;5076549;28;20122;-71
2021/11/20 05:07:33;;;;;;;4.55;1.63;;;;;;;;;;5077387;28;20024;-71
2021/11/20 05:10:00;;;;;;;6.28;1.77;;;;;;;;;;5097697;28;20107;-74
2021/11/20 05:12:26;;;;;;;3.28;1.45;;;;;;;;;;5097552;28;20111;-65
2021/11/20 05:14:52;;;;;;;5.25;1.90;;;;;;;;;;5097816;28;20028;-64
2021/11/20 05:17:18;;;;;;;3.92;1.80;;;;;;;;;;5097623;28;20606;-75
2021/11/20 05:19:44;;;;;;;4.60;1.65;;;;;;;;;;5079500;28;20046;-74
2021/11/20 05:22:10;;;;;;;4.28;1.70;;;;;;;;;;5082572;28;20089;-71
2021/11/20 05:24:36;;;;;;;4.20;1.50;;;;;;;;;;5095197;28;20508;-68
2021/11/20 05:27:02;;;;;;;3.22;1.52;;;;;;;;;;5100378;28;20065;-74
2021/11/20 05:32:07;;;;;;;4.68;1.75;;;;;;;;;;5098184;28;20471;-67
2021/11/20 05:34:33;;;;;;;2.97;1.52;;;;;;;;;;5095363;28;20393;-73
2021/11/20 05:36:59;;;;;;;5.78;1.85;;;;;;;;;;5094260;28;20446;-70
2021/11/20 05:39:25;;;;;;;6.35;1.73;;;;;;;;;;5102125;28;20490;-65
2021/11/20 05:41:52;;;;;;;3.58;1.77;;;;;;;;;;5087339;28;20048;-74
2021/11/20 05:44:18;;;;;;;3.60;1.80;;;;;;;;;;5092987;28;20044;-64
2021/11/20 05:46:45;;;;;;;4.43;1.77;;;;;;;;;;5086310;28;20032;-65
2021/11/20 05:49:11;;;;;;;3.97;1.90;;;;;;;;;;5080987;28;20036;-67
2021/11/20 05:51:38;;;;;;;4.70;2.00;;;;;;;;;;5079377;28;20050;-71
2021/11/20 05:54:05;;;;;;;4.60;1.55;;;;;;;;;;5074773;28;20487;-71
2021/11/20 05:56:31;;;;;;;3.40;1.60;;;;;;;;;;5075251;28;20041;-70
2021/11/20 05:58:57;;;;;;;4.55;1.65;;;;;;;;;;5077827;28;20020;-71
2021/11/20 06:01:24;;;;;;;3.38;1.70;;;;;;;;;;5077682;28;20035;-70
2021/11/20 06:03:50;;;;;;;4.57;1.88;;;;;;;;;;5083821;28;20071;-71
2021/11/20 06:06:17;;;;;;;4.00;1.60;;;;;;;;;;5077010;28;20023;-67
2021/11/20 06:08:43;;;;;;;5.72;1.67;;;;;;;;;;5077815;28;20024;-71
2021/11/20 06:11:11;;;;;;;4.32;1.65;;;;;;;;;;5077965;28;20480;-70
2021/11/20 06:13:37;;;;;;;3.88;1.60;;;;;;;;;;5078183;28;20048;-69
2021/11/20 06:16:04;;;;;;;6.32;1.80;;;;;;;;;;5075765;28;20104;-72
2021/11/20 06:18:30;;;;;;;4.85;1.60;;;;;;;;;;5077479;28;20027;-68
2021/11/20 06:20:56;;;;;;;3.53;1.50;;;;;;;;;;5075550;28;20357;-75
2021/11/20 06:23:22;;;;;;;4.57;1.50;;;;;;;;;;5071356;28;20033;-66
2021/11/20 06:25:49;;;;;;;3.00;1.70;;;;;;;;;;5084924;28;20036;-66
2021/11/20 06:28:15;;;;;;;4.05;1.60;;;;;;;;;;5077168;28;20028;-66
2021/11/20 06:30:41;;;;;;;5.32;1.85;;;;;;;;;;5076320;28;20098;-73
2021/11/20 06:33:07;;;;;;;4.90;2.00;;;;;;;;;;5075866;28;20108;-64
2021/11/20 06:35:35;;;;;;;4.25;1.83;;;;;;;;;;5078021;28;20028;-73
2021/11/20 06:38:01;;;;;;;5.53;1.90;;;;;;;;;;5076182;28;20086;-72
2021/11/20 06:40:29;;;;;;;4.97;1.85;;;;;;;;;;5081566;28;20044;-72
2021/11/20 06:42:56;;;;;;;7.18;1.85;;;;;;;;;;5094856;28;20028;-68
2021/11/20 06:45:24;;;;;;;5.53;2.10;;;;;;;;;;5094825;28;20012;-65
2021/11/20 06:47:51;;;;;;;3.92;1.65;;;;;;;;;;5099472;28;20032;-67
2021/11/20 06:50:17;;;;;;;3.50;1.83;;;;;;;;;;5095201;28;20018;-73
2021/11/20 06:52:43;;;;;;;7.15;1.70;;;;;;;;;;5094983;28;20028;-65
2021/11/20 06:55:11;;;;;;;4.35;1.98;;;;;;;;;;5097894;28;20107;-68
2021/11/20 07:00:26;;;;;;;4.32;1.90;;;;;;;;;;5094363;28;20036;-73
2021/11/20 07:02:55;;;;;;;2.67;1.50;;;;;;;;;;5102220;28;20127;-73
2021/11/20 07:05:21;;;;;;;3.13;1.63;;;;;;;;;;5080229;28;20474;-73
2021/11/20 07:07:47;;;;;;;4.80;1.70;;;;;;;;;;5079542;28;20036;-74
2021/11/20 07:10:16;;;;;;;4.38;1.83;;;;;;;;;;5096607;28;20032;-76
2021/11/20 07:12:42;;;;;;;4.82;1.70;;;;;;;;;;5081936;28;20024;-73
2021/11/20 07:15:09;;;;;;;3.60;1.77;;;;;;;;;;5096848;28;20061;-70
2021/11/20 07:17:35;;;;;;;4.65;1.50;;;;;;;;;;5098768;28;20031;-72
2021/11/20 07:20:01;;;;;;;5.07;1.92;;;;;;;;;;5097364;28;20030;-71
2021/11/20 07:22:27;;;;;;;7.65;1.90;;;;;;;;;;5098489;28;20076;-75
2021/11/20 07:24:53;;;;;;;5.22;2.00;;;;;;;;;;5096630;28;20056;-74
2021/11/20 07:27:20;;;;;;;8.95;1.90;;;;;;;;;;5098402;28;20030;-72
2021/11/20 07:29:46;;;;;;;3.60;1.70;;;;;;;;;;5096578;28;20518;-73
2021/11/20 07:32:12;;;;;;;6.78;2.00;;;;;;;;;;5089660;28;20360;-74
2021/11/20 07:34:38;;;;;;;3.75;1.88;;;;;;;;;;5082546;28;20042;-73
2021/11/20 07:37:05;;;;;;;5.18;1.77;;;;;;;;;;5098263;28;20030;-76
2021/11/20 07:39:31;;;;;;;6.90;1.77;;;;;;;;;;5098429;28;20024;-78
2021/11/20 07:41:57;;;;;;;5.63;1.63;;;;;;;;;;5100482;28;20047;-74
2021/11/20 07:44:23;;;;;;;7.88;1.75;;;;;;;;;;5080218;28;20092;-75
2021/11/20 07:46:49;;;;;;;8.25;2.30;;;;;;;;;;5098059;28;20024;-75
2021/11/20 07:49:15;;;;;;;6.40;2.30;;;;;;;;;;5098670;28;20024;-67
2021/11/20 07:51:43;;;;;;;3.95;1.77;;;;;;;;;;5094027;28;20024;-71
2021/11/20 07:54:09;;;;;;;5.25;1.80;;;;;;;;;;5093880;28;20027;-74
2021/11/20 07:56:41;;;;;;;3.55;1.38;;;;;;;;;;5095080;28;20020;-65
2021/11/20 07:59:08;;;;;;;11.52;1.73;;;;;;;;;;5083186;28;20032;-74
2021/11/20 08:01:34;;;;;;;6.72;2.00;;;;;;;;;;5104714;27;20023;-70
2021/11/20 08:04:00;;;;;;;4.57;1.58;;;;;;;;;;5082977;28;20118;-74
2021/11/20 08:06:27;;;;;;;8.73;2.00;;;;;;;;;;5096884;28;20027;-74
2021/11/20 08:08:53;;;;;;;7.35;1.90;;;;;;;;;;5100294;28;20016;-70
2021/11/20 08:11:19;;;;;;;3.67;1.60;;;;;;;;;;5097535;28;20467;-72
2021/11/20 08:13:45;;;;;;;3.88;1.73;;;;;;;;;;5085806;28;20038;-72
2021/11/20 08:16:11;;;;;;;5.72;1.60;;;;;;;;;;5096038;28;20389;-74
2021/11/20 08:18:37;;;;;;;3.53;1.52;;;;;;;;;;5074703;28;20032;-70
2021/11/20 08:21:04;;;;;;;5.18;1.45;;;;;;;;;;5096702;28;20112;-69
2021/11/20 08:23:30;;;;;;;7.65;2.00;;;;;;;;;;5095931;28;20074;-63
2021/11/20 08:25:57;;;;;;;4.07;1.75;;;;;;;;;;5100859;28;20020;-74
2021/11/20 08:28:26;;;;;;;7.47;1.73;;;;;;;;;;5093542;28;20020;-70
2021/11/20 08:30:52;;;;;;;6.63;1.58;;;;;;;;;;5103999;28;20017;-73
2021/11/20 08:33:18;;;;;;;9.38;2.45;;;;;;;;;;5096220;28;20035;-73
2021/11/20 08:35:44;;;;;;;5.65;1.52;;;;;;;;;;5081547;28;20028;-70
2021/11/20 08:38:11;;;;;;;4.80;1.60;;;;;;;;;;5084518;28;20031;-72
2021/11/20 08:40:38;;;;;;;8.07;1.40;;;;;;;;;;5098508;28;20036;-63
2021/11/20 08:43:05;;;;;;;3.55;1.50;;;;;;;;;;5104914;28;20439;-71
2021/11/20 08:45:32;;;;;;;2.97;1.35;;;;;;;;;;5094638;28;20020;-71
2021/11/20 08:47:58;;;;;;;3.40;1.20;;;;;;;;;;5103076;28;20078;-68
2021/11/20 08:50:27;;;;;;;2.80;1.35;;;;;;;;;;5098748;28;20015;-69
2021/11/20 08:52:53;;;;;;;4.28;1.50;;;;;;;;;;5097760;28;20036;-73
2021/11/20 08:55:19;;;;;;;2.55;1.40;;;;;;;;;;5101452;28;20046;-71
2021/11/20 08:57:45;;;;;;;5.78;1.60;;;;;;;;;;5097808;28;20031;-66
2021/11/20 09:00:14;;;;;;;4.40;1.83;;;;;;;;;;5103390;28;20020;-70
2021/11/20 09:02:44;;;;;;;4.28;1.40;;;;;;;;;;5092341;28;20115;-72
2021/11/20 09:05:17;;;;;;;4.05;1.38;;;;;;;;;;5102961;28;20028;-72
2021/11/20 09:07:48;;;;;;;4.55;1.23;;;;;;;;;;5102308;28;20031;-72
2021/11/20 09:10:23;;;;;;;4.55;1.73;;;;;;;;;;5078689;28;20027;-69
2021/11/20 09:12:52;;;;;;;5.38;1.48;;;;;;;;;;5100343;28;20016;-63
2021/11/20 09:15:32;;;;;;;5.70;1.52;;;;;;;;;;5100731;28;20028;-70
2021/11/20 09:17:58;;;;;;;6.15;1.73;;;;;;;;;;5097017;28;20020;-73
2021/11/20 09:20:25;;;;;;;4.10;1.42;;;;;;;;;;5100958;28;20486;-74
2021/11/20 09:22:51;;;;;;;3.60;1.45;;;;;;;;;;5104222;28;20031;-71
2021/11/20 09:25:18;;;;;;;4.25;1.52;;;;;;;;;;5094368;28;20028;-74
2021/11/20 09:27:44;;;;;;;4.85;1.40;;;;;;;;;;5100676;28;20024;-75
2021/11/20 09:30:12;;;;;;;4.22;1.67;;;;;;;;;;5093884;28;20366;-71
2021/11/20 09:32:38;;;;;;;4.90;2.00;;;;;;;;;;5097563;28;20081;-71
2021/11/20 09:35:04;;;;;;;8.77;1.83;;;;;;;;;;5100399;28;20020;-72
2021/11/20 09:37:31;;;;;;;3.40;1.60;;;;;;;;;;5099408;28;20540;-69
2021/11/20 09:39:57;;;;;;;3.60;1.48;;;;;;;;;;5097795;28;20035;-71
2021/11/20 09:42:31;;;;;;;3.45;1.50;;;;;;;;;;5098244;28;20395;-74
2021/11/20 09:44:59;;;;;;;4.75;1.67;;;;;;;;;;5095605;28;20099;-67
2021/11/20 09:47:31;;;;;;;3.20;1.38;;;;;;;;;;5099032;28;20023;-71
2021/11/20 09:50:02;;;;;;;4.18;1.60;;;;;;;;;;5101749;28;20072;-71
2021/11/20 09:52:28;;;;;;;7.97;1.35;;;;;;;;;;5111680;28;20027;-70
2021/11/20 09:54:54;;;;;;;7.20;1.33;;;;;;;;;;5093469;28;20032;-70
2021/11/20 09:57:23;;;;;;;3.60;1.58;;;;;;;;;;5093768;28;20012;-72
2021/11/20 09:59:55;;;;;;;6.53;1.70;;;;;;;;;;5100067;28;20028;-64
2021/11/20 10:02:31;;;;;;;10.48;3.58;;;;;;;;;;5095872;28;20023;-71
2021/11/20 10:04:57;;;;;;;15.20;6.40;;;;;;;;;;5096172;28;20028;-72
2021/11/20 10:07:23;;;;;;;12.98;6.50;;;;;;;;;;5102279;28;20074;-71
2021/11/20 10:09:51;;;;;;;12.07;6.15;;;;;;;;;;5102084;28;20039;-70
2021/11/20 10:12:21;;;;;;;11.93;6.43;;;;;;;;;;5095258;28;20027;-69
2021/11/20 10:14:49;;;;;;;10.77;5.50;;;;;;;;;;5089234;28;20030;-72
2021/11/20 10:17:22;;;;;;;11.02;4.93;;;;;;;;;;5096699;28;20118;-70
2021/11/20 10:19:50;;;;;;;10.98;5.07;;;;;;;;;;5098683;28;20020;-66
2021/11/20 10:22:26;;;;;;;9.60;5.22;;;;;;;;;;5102115;28;20032;-71
2021/11/20 10:25:08;;;;;;;7.70;4.15;;;;;;;;;;5100455;28;20031;-65
2021/11/20 10:27:35;;;;;;;12.15;4.53;;;;;;;;;;5085585;28;20027;-64
2021/11/20 10:30:07;;;;;;;7.50;4.20;;;;;;;;;;5083720;28;20024;-67
2021/11/20 10:32:33;;;;;;;;;;;;;;;;;;5103546;28;20108;-72
2021/11/20 10:35:01;;;;;;;9.65;4.47;;;;;;;;;;5102438;28;19969;-64
2021/11/20 10:37:38;;;;;;;12.18;4.25;;;;;;;;;;5102109;28;20062;-71
2021/11/20 10:40:13;;;;;;;11.32;3.75;;;;;;;;;;5104218;28;20084;-70
2021/11/20 10:42:42;;;;;;;10.60;3.88;;;;;;;;;;5106563;28;20046;-71
2021/11/20 10:45:08;;;;;;;13.57;3.42;;;;;;;;;;5104824;28;20016;-70
2021/11/20 10:47:39;;;;;;;11.13;3.70;;;;;;;;;;5112918;28;20027;-74
2021/11/20 10:50:05;;;;;;;11.80;3.67;;;;;;;;;;5108430;28;20446;-75
2021/11/20 10:52:44;;;;;;;9.38;3.40;;;;;;;;;;5111118;28;20077;-64
2021/11/20 10:55:16;;;;;;;14.93;4.43;;;;;;;;;;5108977;28;20028;-67
2021/11/20 10:58:01;;;;;;;8.70;3.55;;;;;;;;;;5109219;28;20070;-65
2021/11/20 11:00:56;;;;;;;11.95;3.13;;;;;;;;;;5108006;28;20015;-63
2021/11/20 11:03:25;;;;;;;11.55;3.72;;;;;;;;;;5111949;27;20039;-73
2021/11/20 11:06:10;;;;;;;13.48;4.20;;;;;;;;;;5093013;28;20084;-73
2021/11/20 11:09:08;;;;;;;10.27;3.15;;;;;;;;;;5110804;28;20023;-71
2021/11/20 11:11:43;;;;;;;7.30;2.80;;;;;;;;;;5064662;28;20044;-63
2021/11/20 11:14:15;;;;;;;6.28;2.80;;;;;;;;;;5111023;28;20026;-75
2021/11/20 11:16:41;;;;;;;5.72;2.50;;;;;;;;;;5092035;28;20498;-64
2021/11/20 11:19:13;;;;;;;4.68;2.42;;;;;;;;;;5092868;28;20407;-73
2021/11/20 11:21:42;;;;;;;5.95;2.53;;;;;;;;;;5111152;28;20807;-66
2021/11/20 11:24:20;;;;;;;4.97;2.42;;;;;;;;;;5089531;28;20036;-64
2021/11/20 11:26:55;;;;;;;13.82;2.33;;;;;;;;;;5110802;28;20077;-72
2021/11/20 11:29:40;;;;;;;6.82;2.50;;;;;;;;;;5093445;28;20527;-65
2021/11/20 11:32:07;;;;;;;4.43;2.10;;;;;;;;;;5103305;28;20074;-62
2021/11/20 11:34:36;;;;;;;5.20;2.53;;;;;;;;;;5092729;28;20059;-77
2021/11/20 11:37:09;;;;;;;4.25;2.20;;;;;;;;;;5092807;28;20020;-69
2021/11/20 11:39:54;;;;;;;5.68;2.00;;;;;;;;;;5098351;28;20325;-66
2021/11/20 11:42:26;;;;;;;7.18;2.45;;;;;;;;;;5064141;28;20616;-70
2021/11/20 11:44:58;;;;;;;6.10;2.05;;;;;;;;;;5054069;28;20514;-65
2021/11/20 11:47:31;;;;;;;8.93;2.65;;;;;;;;;;5052769;28;20033;-69
2021/11/20 11:50:15;;;;;;;14.70;1.60;;;;;;;;;;5053920;28;20028;-68
2021/11/20 11:52:47;;;;;;;7.32;1.80;;;;;;;;;;5054028;28;20080;-64
2021/11/20 11:55:31;;;;;;;3.70;1.63;;;;;;;;;;5053755;28;20016;-76
2021/11/20 11:58:03;;;;;;;10.75;2.50;;;;;;;;;;5053282;28;20021;-71
2021/11/20 12:00:36;;;;;;;5.18;2.03;;;;;;;;;;5054706;28;20017;-73
2021/11/20 12:03:12;;;;;;;8.07;1.95;;;;;;;;;;5053354;28;20064;-69
2021/11/20 12:05:40;;;;;;;5.50;1.80;;;;;;;;;;5053678;28;20467;-72
2021/11/20 12:08:15;;;;;;;5.57;1.90;;;;;;;;;;5054055;28;20025;-73
2021/11/20 12:10:59;;;;;;;13.35;3.17;;;;;;;;;;5061114;28;20032;-64
2021/11/20 12:13:28;;;;;;;5.68;2.45;;;;;;;;;;5063596;28;20032;-72
2021/11/20 12:16:12;;;;;;;7.68;2.20;;;;;;;;;;5054714;28;20021;-72
2021/11/20 12:18:42;;;;;;;5.53;2.47;;;;;;;;;;5064660;28;20482;-66
2021/11/20 12:21:18;;;;;;;4.25;1.95;;;;;;;;;;5054890;28;20482;-68
2021/11/20 12:23:59;;;;;;;6.53;2.30;;;;;;;;;;5056137;28;20050;-63
2021/11/20 12:26:28;;;;;;;5.35;2.08;;;;;;;;;;5059304;28;20029;-65
2021/11/20 12:28:58;;;;;;;5.18;2.00;;;;;;;;;;5054845;28;20087;-66
2021/11/20 12:31:43;;;;;;;9.57;3.00;;;;;;;;;;5054089;28;20021;-67
2021/11/20 12:34:24;;;;;;;6.45;2.22;;;;;;;;;;5053122;28;20095;-67
2021/11/20 12:37:00;;;;;;;7.68;2.78;;;;;;;;;;5053013;28;20033;-69
2021/11/20 12:39:38;;;;;;;6.82;2.08;;;;;;;;;;5053880;28;20082;-74
2021/11/20 12:42:08;;;;;;;5.15;2.00;;;;;;;;;;5073676;28;20048;-72
2021/11/20 12:44:49;;;;;;;7.63;2.00;;;;;;;;;;5071796;28;20036;-65
2021/11/20 12:47:26;;;;;;;9.48;2.03;;;;;;;;;;5074204;28;20035;-68
2021/11/20 12:50:04;;;;;;;4.50;1.83;;;;;;;;;;5077214;28;20025;-64
2021/11/20 12:52:30;;;;;;;4.72;2.20;;;;;;;;;;5081714;28;20479;-72
2021/11/20 12:55:02;;;;;;;6.43;2.05;;;;;;;;;;5072455;28;20283;-71
2021/11/20 12:57:40;;;;;;;5.82;2.15;;;;;;;;;;5077268;28;20074;-75
2021/11/20 13:00:09;;;;;;;5.40;1.70;;;;;;;;;;5078281;28;20028;-70
2021/11/20 13:02:36;;;;;;;5.20;1.80;;;;;;;;;;5073374;28;20036;-75
2021/11/20 13:05:10;;;;;;;4.80;1.73;;;;;;;;;;5074883;28;20032;-70
2021/11/20 13:07:36;;;;;;;3.70;1.70;;;;;;;;;;5078573;28;20025;-71
2021/11/20 13:10:19;;;;;;;6.03;1.88;;;;;;;;;;5071939;28;20020;-68
2021/11/20 13:12:52;;;;;;;5.07;2.13;;;;;;;;;;5073497;28;20104;-70
2021/11/20 13:15:36;;;;;;;7.85;1.70;;;;;;;;;;5073997;28;20032;-71
2021/11/20 13:18:02;;;;;;;11.32;2.03;;;;;;;;;;5078431;28;20101;-78
2021/11/20 13:20:34;;;;;;;6.53;2.00;;;;;;;;;;5076404;28;20028;-67
2021/11/20 13:23:15;;;;;;;7.80;1.90;;;;;;;;;;5077958;28;20067;-67
2021/11/20 13:25:57;;;;;;;3.83;1.75;;;;;;;;;;5079998;28;20036;-75
2021/11/20 13:28:23;;;;;;;4.95;1.95;;;;;;;;;;5078145;28;20107;-75
2021/11/20 13:30:49;;;;;;;5.35;1.92;;;;;;;;;;5076679;28;20075;-75
2021/11/20 13:33:15;;;;;;;10.20;2.13;;;;;;;;;;5076722;28;20025;-73
2021/11/20 13:35:41;;;;;;;6.40;1.77;;;;;;;;;;5075948;28;20072;-68
2021/11/20 13:38:10;;;;;;;8.40;2.25;;;;;;;;;;5073444;28;20031;-68
2021/11/20 13:40:56;;;;;;;5.07;1.75;;;;;;;;;;5087633;28;20074;-69
2021/11/20 13:43:23;;;;;;;4.10;1.80;;;;;;;;;;5096075;28;20036;-67
2021/11/20 13:46:13;;;;;;;8.07;2.15;;;;;;;;;;5101153;28;20023;-68
2021/11/20 13:48:39;;;;;;;11.13;2.70;;;;;;;;;;5081938;28;20026;-73
2021/11/20 13:51:24;;;;;;;14.00;2.53;;;;;;;;;;5099585;28;20024;-63
2021/11/20 13:53:52;;;;;;;14.95;2.25;;;;;;;;;;5094514;28;20046;-64
2021/11/20 13:56:18;;;;;;;7.38;2.42;;;;;;;;;;5094350;28;20047;-64
2021/11/20 13:58:44;;;;;;;8.60;2.75;;;;;;;;;;5076188;28;20030;-65
2021/11/20 14:01:15;;;;;;;9.32;2.05;;;;;;;;;;5076114;28;20131;-70
2021/11/20 14:03:51;;;;;;;7.20;2.03;;;;;;;;;;5094158;28;20032;-65
2021/11/20 14:06:18;;;;;;;5.53;2.08;;;;;;;;;;5094078;28;20099;-65
2021/11/20 14:08:44;;;;;;;5.32;1.83;;;;;;;;;;5075940;28;20062;-73
2021/11/20 14:11:16;;;;;;;5.47;1.92;;;;;;;;;;5094080;28;20023;-63
2021/11/20 14:13:42;;;;;;;;;;;;;;;;;;5094599;28;20020;-66
2021/11/20 14:16:09;;;;;;;6.35;2.08;;;;;;;;;;5094099;28;19904;-65
2021/11/20 14:18:48;;;;;;;18.27;2.30;;;;;;;;;;5094062;28;20035;-62
2021/11/20 14:21:16;;;;;;;7.50;1.80;;;;;;;;;;5093866;28;20106;-72
2021/11/20 14:23:52;;;;;;;5.13;1.80;;;;;;;;;;5094183;28;20051;-71
2021/11/20 14:26:18;;;;;;;9.80;2.10;;;;;;;;;;5093269;28;20027;-63
2021/11/20 14:28:46;;;;;;;6.63;2.15;;;;;;;;;;5093662;28;20024;-70
2021/11/20 14:31:13;;;;;;;5.22;2.10;;;;;;;;;;5106721;28;20069;-63
2021/11/20 14:33:58;;;;;;;5.15;1.92;;;;;;;;;;5093590;28;20024;-63
2021/11/20 14:36:31;;;;;;;7.18;2.08;;;;;;;;;;5119366;27;20020;-70
2021/11/20 14:38:57;;;;;;;6.25;2.08;;;;;;;;;;5133300;27;20024;-63
2021/11/20 14:41:33;;;;;;;5.50;1.90;;;;;;;;;;5108520;27;20814;-63
2021/11/20 14:44:03;;;;;;;6.00;1.77;;;;;;;;;;5101156;28;20044;-68
2021/11/20 14:46:29;;;;;;;6.38;1.77;;;;;;;;;;5092115;28;20028;-72
2021/11/20 14:49:08;;;;;;;6.95;1.90;;;;;;;;;;5110615;27;20378;-73
2021/11/20 14:51:39;;;;;;;6.10;1.95;;;;;;;;;;5131662;27;20054;-63
2021/11/20 14:54:09;;;;;;;4.53;1.83;;;;;;;;;;5132872;27;20030;-63
2021/11/20 14:56:35;;;;;;;5.45;1.80;;;;;;;;;;5132589;27;20046;-70
2021/11/20 14:59:01;;;;;;;3.38;1.65;;;;;;;;;;5097987;27;20070;-68
2021/11/20 15:01:29;;;;;;;5.13;1.85;;;;;;;;;;5091647;28;20027;-65